createdAt,value
2023-01-13T00:01:48.206Z,100072.34
2023-01-13T00:04:14.614Z,100073.16
2023-01-13T00:06:40.966Z,100072.53
2023-01-13T00:09:07.342Z,100077.72
2023-01-13T00:11:33.719Z,100069.13
2023-01-13T00:14:00.112Z,100056.09
2023-01-13T00:16:26.478Z,100051.41
2023-01-13T00:18:52.852Z,100059.22
2023-01-13T00:21:20.894Z,100051.22
2023-01-13T00:23:47.785Z,100042.59
2023-01-13T00:26:15.545Z,100050.78
2023-01-13T00:28:42.091Z,100036.94
2023-01-13T00:31:10.003Z,100039.69
2023-01-13T00:33:37.111Z,100036.13
2023-01-13T00:36:04.294Z,100050.28
2023-01-13T00:38:31.517Z,100056.47
2023-01-13T00:41:02.372Z,100062.47
2023-01-13T00:43:30.123Z,100054.03
2023-01-13T00:45:56.478Z,100049.16
2023-01-13T00:48:23.579Z,100055.03
2023-01-13T00:50:59.055Z,100037.13
2023-01-13T00:53:26.087Z,100036.97
2023-01-13T00:56:01.758Z,100029.50
2023-01-13T00:58:28.727Z,100045.75
2023-01-13T01:00:55.160Z,100050.97
2023-01-13T01:03:21.653Z,100060.38
2023-01-13T01:05:48.162Z,100036.16
2023-01-13T01:08:14.520Z,100051.16
2023-01-13T01:10:40.918Z,100044.13
2023-01-13T01:13:07.332Z,100023.94
2023-01-13T01:15:33.685Z,100026.72
2023-01-13T01:18:00.111Z,100040.72
2023-01-13T01:20:26.520Z,100043.34
2023-01-13T01:22:52.907Z,100059.13
2023-01-13T01:25:19.306Z,100062.69
2023-01-13T01:27:45.676Z,100049.53
2023-01-13T01:30:12.366Z,100061.09
2023-01-13T01:32:38.742Z,100035.22
2023-01-13T01:35:05.324Z,100048.44
2023-01-13T01:37:31.853Z,100044.03
2023-01-13T01:39:58.227Z,100014.28
2023-01-13T01:42:46.001Z,100022.91
2023-01-13T01:45:18.370Z,100038.53
2023-01-13T01:47:49.629Z,100065.88
2023-01-13T01:50:17.467Z,100072.19
2023-01-13T01:52:46.554Z,100077.44
2023-01-13T01:55:18.227Z,100072.53
2023-01-13T01:57:53.367Z,100065.06
2023-01-13T02:00:20.200Z,100070.94
2023-01-13T02:02:48.058Z,100074.03
2023-01-13T02:05:14.551Z,100057.94
2023-01-13T02:07:42.302Z,100077.34
2023-01-13T02:10:11.623Z,100071.94
2023-01-13T02:12:38.724Z,100078.31
2023-01-13T02:15:07.408Z,100067.06
2023-01-13T02:17:42.524Z,100080.63
2023-01-13T02:20:27.224Z,100068.41
2023-01-13T02:22:53.593Z,100070.66
2023-01-13T02:25:34.758Z,100080.13
2023-01-13T02:28:13.244Z,100086.16
2023-01-13T02:30:58.147Z,100073.94
2023-01-13T02:33:37.002Z,100069.09
2023-01-13T02:36:03.446Z,100072.88
2023-01-13T02:38:42.817Z,100068.31
2023-01-13T02:41:33.423Z,100074.31
2023-01-13T02:44:08.885Z,100078.09
2023-01-13T02:46:44.650Z,100063.28
2023-01-13T02:49:14.263Z,100065.75
2023-01-13T02:51:42.125Z,100066.44
2023-01-13T02:54:18.407Z,100061.25
2023-01-13T02:56:47.555Z,100067.59
2023-01-13T02:59:14.048Z,100053.91
2023-01-13T03:01:43.980Z,100053.25
2023-01-13T03:04:29.133Z,100059.63
2023-01-13T03:07:01.545Z,100073.75
2023-01-13T03:09:33.059Z,100060.00
2023-01-13T03:12:15.365Z,100061.44
2023-01-13T03:14:44.405Z,100055.28
2023-01-13T03:17:21.967Z,100057.69
2023-01-13T03:19:51.466Z,100052.50
2023-01-13T03:22:31.919Z,100037.44
2023-01-13T03:25:01.323Z,100044.75
2023-01-13T03:27:35.793Z,100049.78
2023-01-13T03:30:14.311Z,100047.72
2023-01-13T03:32:42.968Z,100051.44
2023-01-13T03:35:21.893Z,100061.38
2023-01-13T03:37:51.744Z,100058.09
2023-01-13T03:40:23.311Z,100056.97
2023-01-13T03:43:19.432Z,100059.44
2023-01-13T03:45:48.526Z,100053.56
2023-01-13T03:48:17.611Z,100062.22
2023-01-13T03:50:49.024Z,100059.94
2023-01-13T03:53:20.904Z,100057.34
2023-01-13T03:55:52.059Z,100065.31
2023-01-13T03:58:26.431Z,100058.97
2023-01-13T04:00:57.120Z,100053.28
2023-01-13T04:03:35.897Z,100060.28
2023-01-13T04:06:28.468Z,100051.38
2023-01-13T04:09:12.037Z,100058.88
2023-01-13T04:11:42.989Z,100062.59
2023-01-13T04:14:11.398Z,100065.66
2023-01-13T04:16:38.119Z,100066.81
2023-01-13T04:19:04.543Z,100062.59
2023-01-13T04:21:31.094Z,100063.38
2023-01-13T04:23:57.512Z,100068.94
2023-01-13T04:26:24.335Z,100070.25
2023-01-13T04:28:51.893Z,100063.56
2023-01-13T04:31:18.314Z,100068.28
2023-01-13T04:33:44.748Z,100063.09
2023-01-13T04:36:11.133Z,100066.34
2023-01-13T04:38:37.510Z,100071.56
2023-01-13T04:41:03.893Z,100066.81
2023-01-13T04:43:30.242Z,100061.16
2023-01-13T04:45:56.671Z,100067.31
2023-01-13T04:48:23.198Z,100072.84
2023-01-13T04:50:49.558Z,100063.25
2023-01-13T04:53:15.949Z,100080.81
2023-01-13T04:55:44.252Z,100086.81
2023-01-13T04:58:11.029Z,100088.25
2023-01-13T05:00:37.955Z,100101.72
2023-01-13T05:03:04.834Z,100080.47
2023-01-13T05:05:31.402Z,100054.84
2023-01-13T05:07:57.864Z,100057.75
2023-01-13T05:10:24.327Z,100064.22
2023-01-13T05:13:09.355Z,100063.75
2023-01-13T05:15:54.174Z,100061.81
2023-01-13T05:18:20.824Z,100061.81
2023-01-13T05:20:47.241Z,100067.97
2023-01-13T05:23:32.438Z,100075.13
2023-01-13T05:25:58.886Z,100073.00
2023-01-13T05:28:25.265Z,100066.34
2023-01-13T05:30:52.440Z,100064.91
2023-01-13T05:33:20.296Z,100059.69
2023-01-13T05:35:47.432Z,100062.13
2023-01-13T05:38:13.987Z,100079.81
2023-01-13T05:40:59.792Z,100070.41
2023-01-13T05:43:27.129Z,100082.41
2023-01-13T05:45:56.551Z,100073.66
2023-01-13T05:48:24.580Z,100085.81
2023-01-13T05:50:51.114Z,100076.25
2023-01-13T05:53:18.253Z,100081.28
2023-01-13T05:55:45.069Z,100080.78
2023-01-13T05:58:15.613Z,100086.16
2023-01-13T06:00:42.916Z,100090.69
2023-01-13T06:03:09.872Z,100086.47
2023-01-13T06:05:36.396Z,100082.25
2023-01-13T06:08:03.578Z,100078.19
2023-01-13T06:10:29.978Z,100098.00
2023-01-13T06:12:56.585Z,100096.84
2023-01-13T06:15:23.417Z,100100.94
2023-01-13T06:17:49.828Z,100099.16
2023-01-13T06:20:16.755Z,100107.06
2023-01-13T06:22:45.653Z,100103.53
2023-01-13T06:25:22.702Z,100101.06
2023-01-13T06:27:49.361Z,100112.59
2023-01-13T06:30:15.860Z,100103.50
2023-01-13T06:32:45.056Z,100103.84
2023-01-13T06:35:13.627Z,100104.34
2023-01-13T06:37:41.615Z,100116.16
2023-01-13T06:40:08.431Z,100110.81
2023-01-13T06:42:54.999Z,100115.00
2023-01-13T06:45:22.220Z,100114.22
2023-01-13T06:47:48.624Z,100110.16
2023-01-13T06:50:16.247Z,100120.06
2023-01-13T06:52:43.307Z,100114.19
2023-01-13T06:55:09.765Z,100116.78
2023-01-13T06:57:46.276Z,100116.91
2023-01-13T07:00:13.056Z,100121.84
2023-01-13T07:02:39.466Z,100113.88
2023-01-13T07:05:05.987Z,100116.91
2023-01-13T07:07:33.535Z,100114.16
2023-01-13T07:10:00.484Z,100125.22
2023-01-13T07:12:26.880Z,100120.31
2023-01-13T07:15:11.851Z,100130.88
2023-01-13T07:17:38.231Z,100130.06
2023-01-13T07:20:04.872Z,100119.50
2023-01-13T07:22:31.238Z,100127.00
2023-01-13T07:24:58.057Z,100130.06
2023-01-13T07:27:24.437Z,100127.47
2023-01-13T07:29:50.832Z,100138.16
2023-01-13T07:32:17.220Z,100130.88
2023-01-13T07:34:43.676Z,100139.13
2023-01-13T07:37:10.085Z,100135.56
2023-01-13T07:39:36.476Z,100140.28
2023-01-13T07:42:21.600Z,100140.91
2023-01-13T07:44:48.204Z,100141.38
2023-01-13T07:47:14.574Z,100152.09
2023-01-13T07:49:40.991Z,100153.56
2023-01-13T07:52:07.447Z,100155.66
2023-01-13T07:54:40.490Z,100157.75
2023-01-13T07:57:07.727Z,100160.19
2023-01-13T07:59:34.150Z,100153.88
2023-01-13T08:02:00.740Z,100154.84
2023-01-13T08:04:27.275Z,100158.22
2023-01-13T08:06:53.675Z,100155.47
2023-01-13T08:09:20.052Z,100151.75
2023-01-13T08:12:06.460Z,100162.63
2023-01-13T08:14:32.920Z,100164.72
2023-01-13T08:16:59.356Z,100163.09
2023-01-13T08:19:25.736Z,100172.69
2023-01-13T08:21:52.090Z,100185.94
2023-01-13T08:24:24.695Z,100177.69
2023-01-13T08:26:51.077Z,100182.25
2023-01-13T08:29:17.504Z,100188.09
2023-01-13T08:31:43.917Z,100189.06
2023-01-13T08:34:10.362Z,100189.88
2023-01-13T08:36:36.753Z,100188.25
2023-01-13T08:39:03.258Z,100199.91
2023-01-13T08:41:48.352Z,100200.72
2023-01-13T08:44:14.757Z,100210.28
2023-01-13T08:46:42.181Z,100203.66
2023-01-13T08:49:08.700Z,100205.47
2023-01-13T08:51:35.165Z,100202.56
2023-01-13T08:54:02.166Z,100207.41
2023-01-13T08:56:34.275Z,100201.41
2023-01-13T08:59:02.080Z,100211.50
2023-01-13T09:01:28.627Z,100216.69
2023-01-13T09:03:55.204Z,100220.91
2023-01-13T09:06:21.684Z,100212.16
2023-01-13T09:08:48.063Z,100208.91
2023-01-13T09:11:37.151Z,100214.56
2023-01-13T09:14:03.865Z,100210.69
2023-01-13T09:16:30.278Z,100215.38
2023-01-13T09:18:56.647Z,100221.91
2023-01-13T09:21:23.269Z,100198.84
2023-01-13T09:23:49.745Z,100218.50
2023-01-13T09:26:18.837Z,100217.84
2023-01-13T09:28:45.294Z,100223.91
2023-01-13T09:31:12.237Z,100211.56
2023-01-13T09:33:57.135Z,100215.66
2023-01-13T09:36:23.687Z,100219.69
2023-01-13T09:38:50.574Z,100227.13
2023-01-13T09:41:39.897Z,100218.06
2023-01-13T09:44:09.837Z,100232.38
2023-01-13T09:46:47.001Z,100228.47
2023-01-13T09:49:22.262Z,100221.31
2023-01-13T09:52:10.199Z,100239.50
2023-01-13T09:54:41.041Z,100257.19
2023-01-13T09:57:09.851Z,100255.25
2023-01-13T09:59:38.051Z,100265.63
2023-01-13T10:02:23.239Z,100256.38
2023-01-13T10:05:06.195Z,100250.91
2023-01-13T10:07:34.846Z,100267.28
2023-01-13T10:10:02.489Z,100265.34
2023-01-13T10:12:49.039Z,100263.03
2023-01-13T10:15:22.983Z,100258.06
2023-01-13T10:18:00.811Z,100254.63
2023-01-13T10:20:39.830Z,100251.22
2023-01-13T10:23:20.595Z,100256.28
2023-01-13T10:25:53.170Z,100260.47
2023-01-13T10:28:19.797Z,100249.75
2023-01-13T10:30:47.611Z,100265.34
2023-01-13T10:33:18.740Z,100260.97
2023-01-13T10:36:01.655Z,100263.56
2023-01-13T10:38:37.529Z,100254.44
2023-01-13T10:41:24.652Z,100251.66
2023-01-13T10:44:04.355Z,100261.94
2023-01-13T10:46:32.950Z,100251.88
2023-01-13T10:49:00.862Z,100258.53
2023-01-13T10:51:30.161Z,100264.88
2023-01-13T10:53:57.547Z,100278.16
2023-01-13T10:56:25.724Z,100267.75
2023-01-13T10:58:52.227Z,100283.06
2023-01-13T11:01:26.483Z,100276.72
2023-01-13T11:03:54.003Z,100294.44
2023-01-13T11:06:25.521Z,100290.38
2023-01-13T11:08:55.090Z,100293.16
2023-01-13T11:11:38.493Z,100294.13
2023-01-13T11:14:36.501Z,100290.72
2023-01-13T11:17:09.705Z,100298.53
2023-01-13T11:19:40.113Z,100293.31
2023-01-13T11:22:17.088Z,100292.53
2023-01-13T11:25:01.588Z,100291.53
2023-01-13T11:27:37.155Z,100295.13
2023-01-13T11:30:15.774Z,100299.34
2023-01-13T11:32:57.326Z,100294.31
2023-01-13T11:35:24.024Z,100300.31
2023-01-13T11:38:03.003Z,100300.16
2023-01-13T11:40:34.718Z,100326.94
2023-01-13T11:43:10.721Z,100321.09
2023-01-13T11:45:42.871Z,100320.28
2023-01-13T11:48:13.955Z,100316.84
2023-01-13T11:50:51.082Z,100323.81
2023-01-13T11:53:25.060Z,100316.03
2023-01-13T11:56:00.762Z,100315.09
2023-01-13T11:58:27.152Z,100312.16
2023-01-13T12:01:10.020Z,100307.59
2023-01-13T12:03:58.720Z,100310.38
2023-01-13T12:06:32.686Z,100312.97
2023-01-13T12:09:17.693Z,100304.38
2023-01-13T12:12:13.763Z,100308.75
2023-01-13T12:15:07.672Z,100316.38
2023-01-13T12:17:37.098Z,100316.38
2023-01-13T12:20:25.219Z,100307.13
2023-01-13T12:22:53.820Z,100319.78
2023-01-13T12:25:29.296Z,100325.63
2023-01-13T12:28:22.109Z,100315.03
2023-01-13T12:31:02.036Z,100338.59
2023-01-13T12:33:40.587Z,100358.56
2023-01-13T12:36:27.847Z,100364.38
2023-01-13T12:39:09.585Z,100359.63
2023-01-13T12:42:05.905Z,100368.69
2023-01-13T12:44:32.323Z,100389.63
2023-01-13T12:46:59.232Z,100381.19
2023-01-13T12:49:28.760Z,100377.63
2023-01-13T12:51:55.191Z,100376.81
2023-01-13T12:54:30.449Z,100383.97
2023-01-13T12:56:57.803Z,100399.31
2023-01-13T12:59:24.155Z,100398.50
2023-01-13T13:01:51.624Z,100396.88
2023-01-13T13:04:19.774Z,100388.78
2023-01-13T13:06:52.508Z,100395.91
2023-01-13T13:09:28.087Z,100402.34
2023-01-13T13:12:03.617Z,100404.66
2023-01-13T13:14:39.171Z,100403.41
2023-01-13T13:17:25.594Z,100406.28
2023-01-13T13:19:52.136Z,100408.88
2023-01-13T13:22:36.303Z,100405.63
2023-01-13T13:25:02.937Z,100412.75
2023-01-13T13:27:35.383Z,100405.63
2023-01-13T13:30:13.927Z,100415.22
2023-01-13T13:32:49.403Z,100420.34
2023-01-13T13:35:21.966Z,100415.34
2023-01-13T13:38:34.052Z,100413.78
2023-01-13T13:41:23.077Z,100417.94
2023-01-13T13:44:08.500Z,100420.94
2023-01-13T13:46:46.837Z,100415.72
2023-01-13T13:49:33.403Z,100428.19
2023-01-13T13:52:03.716Z,100436.78
2023-01-13T13:54:31.394Z,100436.09
2023-01-13T13:56:59.037Z,100430.19
2023-01-13T13:59:27.772Z,100446.78
2023-01-13T14:02:02.004Z,100444.81
2023-01-13T14:04:33.039Z,100436.91
2023-01-13T14:07:01.602Z,100439.50
2023-01-13T14:09:28.796Z,100441.78
2023-01-13T14:11:55.467Z,100452.16
2023-01-13T14:14:21.948Z,100469.53
2023-01-13T14:16:50.979Z,100471.03
2023-01-13T14:19:34.284Z,100467.47
2023-01-13T14:22:02.420Z,100468.44
2023-01-13T14:24:29.590Z,100475.25
2023-01-13T14:27:15.580Z,100492.44
2023-01-13T14:29:42.287Z,100483.84
2023-01-13T14:32:09.223Z,100493.44
2023-01-13T14:34:36.241Z,100497.00
2023-01-13T14:37:02.986Z,100493.06
2023-01-13T14:39:38.730Z,100501.22
2023-01-13T14:42:11.024Z,100514.69
2023-01-13T14:44:37.431Z,100515.22
2023-01-13T14:47:15.513Z,100508.41
2023-01-13T14:49:51.461Z,100518.94
2023-01-13T14:52:17.951Z,100519.59
2023-01-13T14:54:50.416Z,100519.91
2023-01-13T14:57:16.891Z,100523.63
2023-01-13T14:59:47.561Z,100537.44
2023-01-13T15:02:43.221Z,100543.59
2023-01-13T15:05:24.948Z,100546.34
2023-01-13T15:07:53.414Z,100546.69
2023-01-13T15:10:21.520Z,100562.44
2023-01-13T15:12:50.679Z,100571.03
2023-01-13T15:15:22.600Z,100566.53
2023-01-13T15:17:49.005Z,100576.53
2023-01-13T15:20:16.553Z,100572.16
2023-01-13T15:22:42.968Z,100581.75
2023-01-13T15:25:09.619Z,100582.38
2023-01-13T15:27:36.893Z,100592.13
2023-01-13T15:30:04.188Z,100596.19
2023-01-13T15:32:30.598Z,100602.34
2023-01-13T15:34:56.970Z,100621.34
2023-01-13T15:37:25.497Z,100616.31
2023-01-13T15:39:51.984Z,100612.91
2023-01-13T15:42:36.975Z,100612.09
2023-01-13T15:45:22.458Z,100628.50
2023-01-13T15:47:48.863Z,100634.94
2023-01-13T15:50:16.188Z,100633.97
2023-01-13T15:52:42.649Z,100639.16
2023-01-13T15:55:09.354Z,100646.00
2023-01-13T15:57:37.424Z,100642.72
2023-01-13T16:00:05.667Z,100646.97
2023-01-13T16:02:33.111Z,100652.31
2023-01-13T16:04:59.564Z,100656.03
2023-01-13T16:07:26.167Z,100661.88
2023-01-13T16:09:52.837Z,100663.28
2023-01-13T16:12:19.305Z,100659.56
2023-01-13T16:14:45.828Z,100662.84
2023-01-13T16:17:16.537Z,100665.56
2023-01-13T16:19:43.445Z,100674.66
2023-01-13T16:22:14.495Z,100681.31
2023-01-13T16:24:41.170Z,100671.91
2023-01-13T16:27:17.965Z,100683.09
2023-01-13T16:29:44.803Z,100669.94
2023-01-13T16:32:11.224Z,100690.88
2023-01-13T16:34:37.648Z,100691.03
2023-01-13T16:37:04.339Z,100707.44
2023-01-13T16:39:33.789Z,100704.31
2023-01-13T16:42:00.361Z,100704.88
2023-01-13T16:44:27.093Z,100709.97
2023-01-13T16:46:53.578Z,100715.72
2023-01-13T16:49:20.213Z,100714.75
2023-01-13T16:51:46.672Z,100712.84
2023-01-13T16:54:13.355Z,100726.47
2023-01-13T16:56:40.161Z,100735.22
2023-01-13T16:59:11.833Z,100734.41
2023-01-13T17:01:39.474Z,100749.84
2023-01-13T17:04:06.597Z,100744.00
2023-01-13T17:06:38.974Z,100756.16
2023-01-13T17:09:07.083Z,100752.59
2023-01-13T17:11:34.035Z,100757.78
2023-01-13T17:14:00.456Z,100751.94
2023-01-13T17:16:44.566Z,100756.16
2023-01-13T17:19:11.867Z,100764.06
2023-01-13T17:21:38.264Z,100778.72
2023-01-13T17:24:06.335Z,100782.53
2023-01-13T17:26:37.055Z,100780.63
2023-01-13T17:29:08.595Z,100791.00
2023-01-13T17:31:35.654Z,100790.88
2023-01-13T17:34:02.967Z,100788.53
2023-01-13T17:36:29.665Z,100793.72
2023-01-13T17:38:56.371Z,100793.88
2023-01-13T17:41:23.560Z,100789.66
2023-01-13T17:43:50.022Z,100789.78
2023-01-13T17:46:19.847Z,100785.69
2023-01-13T17:48:46.874Z,100795.09
2023-01-13T17:51:14.022Z,100793.22
2023-01-13T17:53:40.682Z,100784.72
2023-01-13T17:56:09.146Z,100782.94
2023-01-13T17:58:35.957Z,100789.25
2023-01-13T18:01:09.465Z,100796.88
2023-01-13T18:03:36.975Z,100797.84
2023-01-13T18:06:04.621Z,100802.38
2023-01-13T18:08:31.175Z,100802.22
2023-01-13T18:10:59.212Z,100808.06
2023-01-13T18:13:26.161Z,100813.34
2023-01-13T18:16:07.657Z,100821.66
2023-01-13T18:18:34.352Z,100816.03
2023-01-13T18:21:20.243Z,100818.03
2023-01-13T18:24:05.944Z,100823.63
2023-01-13T18:26:51.115Z,100818.19
2023-01-13T18:29:18.378Z,100824.44
2023-01-13T18:31:44.950Z,100827.19
2023-01-13T18:34:11.390Z,100832.22
2023-01-13T18:36:37.978Z,100829.75
2023-01-13T18:39:04.796Z,100829.88
2023-01-13T18:41:50.005Z,100836.19
2023-01-13T18:44:16.508Z,100840.13
2023-01-13T18:46:42.898Z,100839.44
2023-01-13T18:49:09.346Z,100848.75
2023-01-13T18:51:35.727Z,100859.25
2023-01-13T18:54:02.105Z,100859.97
2023-01-13T18:56:28.638Z,100863.91
2023-01-13T18:58:55.095Z,100852.59
2023-01-13T19:01:25.813Z,100866.63
2023-01-13T19:03:59.420Z,100871.97
2023-01-13T19:06:27.742Z,100868.72
2023-01-13T19:08:55.278Z,100869.16
2023-01-13T19:11:25.097Z,100879.53
2023-01-13T19:13:52.106Z,100879.69
2023-01-13T19:16:21.318Z,100875.81
2023-01-13T19:18:47.945Z,100884.88
2023-01-13T19:21:14.784Z,100885.13
2023-01-13T19:23:41.535Z,100888.38
2023-01-13T19:26:09.138Z,100881.72
2023-01-13T19:28:36.427Z,100881.03
2023-01-13T19:31:04.241Z,100887.19
2023-01-13T19:33:32.426Z,100878.31
2023-01-13T19:35:58.931Z,100888.31
2023-01-13T19:38:26.041Z,100898.00
2023-01-13T19:41:34.204Z,100895.28
2023-01-13T19:44:19.114Z,100911.06
2023-01-13T19:46:45.769Z,100909.78
2023-01-13T19:49:12.289Z,100920.88
2023-01-13T19:51:38.677Z,100933.47
2023-01-13T19:54:05.098Z,100931.41
2023-01-13T19:56:31.523Z,100943.44
2023-01-13T19:58:57.951Z,100938.94
2023-01-13T20:01:31.756Z,100940.88
2023-01-13T20:04:06.601Z,100941.41
2023-01-13T20:06:33.245Z,100947.03
2023-01-13T20:08:59.916Z,100954.41
2023-01-13T20:11:31.340Z,100961.53
2023-01-13T20:13:58.724Z,100957.69
2023-01-13T20:16:25.797Z,100959.63
2023-01-13T20:18:52.861Z,100956.09
2023-01-13T20:21:19.387Z,100954.00
2023-01-13T20:23:49.499Z,100960.31
2023-01-13T20:26:15.980Z,100963.47
2023-01-13T20:28:42.581Z,100960.47
2023-01-13T20:31:09.905Z,100969.63
2023-01-13T20:33:36.901Z,100975.22
2023-01-13T20:36:03.482Z,100974.69
2023-01-13T20:38:36.926Z,100988.91
2023-01-13T20:41:27.059Z,100989.59
2023-01-13T20:43:53.588Z,100993.28
2023-01-13T20:46:20.849Z,100997.38
2023-01-13T20:48:47.440Z,101007.78
2023-01-13T20:51:14.081Z,101004.75
2023-01-13T20:53:41.776Z,100997.75
2023-01-13T20:56:08.823Z,101007.06
2023-01-13T20:58:37.367Z,100994.34
2023-01-13T21:01:04.483Z,101010.75
2023-01-13T21:03:31.116Z,101010.22
2023-01-13T21:05:58.426Z,101011.00
2023-01-13T21:08:25.302Z,101018.66
2023-01-13T21:10:52.003Z,101015.13
2023-01-13T21:13:47.733Z,101013.22
2023-01-13T21:16:14.943Z,100999.53
2023-01-13T21:18:59.908Z,101012.13
2023-01-13T21:21:27.233Z,101008.56
2023-01-13T21:23:54.242Z,101016.22
2023-01-13T21:26:22.447Z,101022.50
2023-01-13T21:28:49.481Z,101020.88
2023-01-13T21:31:15.992Z,101024.97
2023-01-13T21:33:43.806Z,101016.22
2023-01-13T21:36:14.254Z,101022.50
2023-01-13T21:38:40.814Z,101022.50
2023-01-13T21:41:08.328Z,101035.91
2023-01-13T21:43:54.521Z,101036.44
2023-01-13T21:46:40.638Z,101046.94
2023-01-13T21:49:07.119Z,101038.09
2023-01-13T21:51:33.969Z,101044.25
2023-01-13T21:54:00.936Z,101047.09
2023-01-13T21:56:27.413Z,101036.72
2023-01-13T21:58:56.056Z,101041.22
2023-01-13T22:01:22.828Z,101042.72
2023-01-13T22:04:08.173Z,101059.94
2023-01-13T22:06:34.610Z,101054.88
2023-01-13T22:09:01.100Z,101068.81
2023-01-13T22:11:28.008Z,101073.59
2023-01-13T22:14:10.048Z,101077.16
2023-01-13T22:16:41.700Z,101061.19
2023-01-13T22:19:09.100Z,101070.88
2023-01-13T22:21:35.702Z,101073.06
2023-01-13T22:24:02.481Z,101076.06
2023-01-13T22:26:29.129Z,101080.72
2023-01-13T22:28:55.632Z,101079.34
2023-01-13T22:31:23.710Z,101083.56
2023-01-13T22:33:54.220Z,101084.00
2023-01-13T22:36:20.911Z,101087.41
2023-01-13T22:38:47.373Z,101081.25
2023-01-13T22:41:13.957Z,101092.47
2023-01-13T22:43:40.725Z,101098.59
2023-01-13T22:46:11.704Z,101100.38
2023-01-13T22:48:38.810Z,101113.22
2023-01-13T22:51:06.586Z,101107.06
2023-01-13T22:53:33.164Z,101106.50
2023-01-13T22:56:00.163Z,101102.03
2023-01-13T22:58:27.178Z,101110.88
2023-01-13T23:00:54.885Z,101107.63
2023-01-13T23:03:21.978Z,101105.84
2023-01-13T23:05:48.786Z,101104.75
2023-01-13T23:08:15.339Z,101097.09
2023-01-13T23:10:41.785Z,101093.97
2023-01-13T23:13:08.556Z,101099.16
2023-01-13T23:15:35.124Z,101103.09
2023-01-13T23:18:02.690Z,101118.53
2023-01-13T23:20:30.459Z,101108.41
2023-01-13T23:22:59.175Z,101117.84
2023-01-13T23:25:26.482Z,101130.53
2023-01-13T23:27:53.578Z,101129.59
2023-01-13T23:30:20.367Z,101137.50
2023-01-13T23:32:46.936Z,101140.50
2023-01-13T23:35:13.401Z,101145.59
2023-01-13T23:37:39.878Z,101143.53
2023-01-13T23:40:06.753Z,101155.81
2023-01-13T23:42:33.201Z,101149.66
2023-01-13T23:44:59.651Z,101145.00
2023-01-13T23:47:26.013Z,101150.63
2023-01-13T23:49:52.448Z,101154.28
2023-01-13T23:52:18.828Z,101143.00
2023-01-13T23:54:45.316Z,101144.63
2023-01-13T23:57:11.738Z,101138.34
2023-01-13T23:59:38.114Z,101143.00
